createdAt,value
2022-08-28T00:03:48.397Z,10.3
2022-08-28T00:08:48.432Z,9.4
2022-08-28T00:13:48.353Z,9.6
2022-08-28T00:18:48.361Z,9.6
2022-08-28T00:23:48.454Z,10.1
2022-08-28T00:28:48.305Z,8.8
2022-08-28T00:33:48.352Z,9.9
2022-08-28T00:38:48.433Z,9.6
2022-08-28T00:43:48.249Z,10.5
2022-08-28T00:48:48.220Z,9.5
2022-08-28T00:53:48.341Z,10.2
2022-08-28T00:58:48.272Z,9.7
2022-08-28T01:03:48.203Z,10.4
2022-08-28T01:08:50.361Z,10.7
2022-08-28T01:13:48.224Z,11.1
2022-08-28T01:18:48.219Z,10.9
2022-08-28T01:23:48.437Z,11.0
2022-08-28T01:28:48.884Z,10.1
2022-08-28T01:33:48.295Z,12.3
2022-08-28T01:38:48.210Z,11.0
2022-08-28T01:43:48.267Z,11.1
2022-08-28T01:48:49.608Z,11.5
2022-08-28T01:53:48.371Z,13.3
2022-08-28T01:58:48.247Z,11.8
2022-08-28T02:03:48.305Z,13.5
2022-08-28T02:08:48.418Z,12.7
2022-08-28T02:13:50.834Z,12.1
2022-08-28T02:18:48.065Z,10.3
2022-08-28T02:23:48.166Z,11.3
2022-08-28T02:28:48.150Z,11.7
2022-08-28T02:33:48.458Z,12.1
2022-08-28T02:38:48.015Z,13.6
2022-08-28T02:43:48.203Z,14.5
2022-08-28T02:48:48.124Z,14.2
2022-08-28T02:53:48.263Z,13.8
2022-08-28T02:58:47.978Z,13.6
2022-08-28T03:03:48.129Z,14.3
2022-08-28T03:08:48.175Z,12.5
2022-08-28T03:13:48.054Z,14.1
2022-08-28T03:18:48.072Z,13.5
2022-08-28T03:23:48.258Z,13.2
2022-08-28T03:28:48.075Z,13.4
2022-08-28T03:33:47.954Z,13.5
2022-08-28T03:38:47.923Z,12.7
2022-08-28T03:43:48.050Z,14.0
2022-08-28T03:48:48.163Z,14.0
2022-08-28T03:53:48.127Z,15.5
2022-08-28T03:58:47.951Z,15.0
2022-08-28T04:03:48.102Z,12.7
2022-08-28T04:08:48.166Z,12.8
2022-08-28T04:13:48.033Z,14.0
2022-08-28T04:18:47.914Z,12.4
2022-08-28T04:23:48.392Z,15.2
2022-08-28T04:28:49.104Z,14.0
2022-08-28T04:33:48.017Z,14.2
2022-08-28T04:38:48.228Z,13.7
2022-08-28T04:43:47.966Z,14.7
2022-08-28T04:48:47.918Z,14.2
2022-08-28T04:53:48.099Z,14.9
2022-08-28T04:58:47.927Z,15.4
2022-08-28T05:03:47.930Z,16.7
2022-08-28T05:08:48.121Z,15.5
2022-08-28T05:13:47.765Z,14.0
2022-08-28T05:18:47.856Z,12.6
2022-08-28T05:23:48.043Z,12.3
2022-08-28T05:28:47.869Z,13.2
2022-08-28T05:33:47.807Z,12.7
2022-08-28T05:38:48.170Z,12.0
2022-08-28T05:43:47.908Z,11.8
2022-08-28T05:48:47.717Z,11.3
2022-08-28T05:53:47.990Z,11.5
2022-08-28T05:58:47.756Z,11.4
2022-08-28T06:03:47.834Z,11.8
2022-08-28T06:08:58.150Z,12.9
2022-08-28T06:13:47.709Z,12.4
2022-08-28T06:18:47.721Z,11.8
2022-08-28T06:23:47.895Z,12.0
2022-08-28T06:28:47.702Z,12.7
2022-08-28T06:33:47.753Z,13.4
2022-08-28T06:38:47.920Z,13.2
2022-08-28T06:43:47.675Z,13.9
2022-08-28T06:48:47.758Z,13.9
2022-08-28T06:53:47.937Z,14.2
2022-08-28T06:58:50.117Z,13.5
2022-08-28T07:03:47.661Z,14.2
2022-08-28T07:08:47.849Z,13.4
2022-08-28T07:13:47.782Z,15.1
2022-08-28T07:18:47.712Z,15.0
2022-08-28T07:23:47.612Z,15.2
2022-08-28T07:28:47.723Z,13.9
2022-08-28T07:33:50.827Z,15.1
2022-08-28T07:38:47.624Z,13.9
2022-08-28T07:43:47.704Z,13.8
2022-08-28T07:48:48.259Z,12.1
2022-08-28T07:53:47.591Z,13.2
2022-08-28T07:58:47.507Z,11.1
2022-08-28T08:03:47.655Z,10.7
2022-08-28T08:08:47.698Z,11.2
2022-08-28T08:13:47.541Z,10.3
2022-08-28T08:18:47.593Z,11.9
2022-08-28T08:23:47.810Z,10.9
2022-08-28T08:28:47.634Z,9.7
2022-08-28T08:33:47.620Z,12.6
2022-08-28T08:38:47.483Z,11.3
2022-08-28T08:43:47.622Z,12.8
2022-08-28T08:48:47.570Z,12.0
2022-08-28T08:53:47.490Z,12.4
2022-08-28T08:58:47.698Z,14.5
2022-08-28T09:03:47.618Z,12.1
2022-08-28T09:08:47.538Z,11.8
2022-08-28T09:13:47.528Z,10.2
2022-08-28T09:18:47.578Z,9.1
2022-08-28T09:23:47.683Z,12.2
2022-08-28T09:28:47.574Z,11.2
2022-08-28T09:33:47.620Z,10.4
2022-08-28T09:38:47.656Z,11.2
2022-08-28T09:43:47.607Z,11.4
2022-08-28T09:48:47.509Z,10.7
2022-08-28T09:53:47.410Z,13.2
2022-08-28T09:58:47.635Z,13.8
2022-08-28T10:03:47.618Z,11.5
2022-08-28T10:08:47.345Z,9.6
2022-08-28T10:13:47.470Z,9.2
2022-08-28T10:18:47.440Z,9.5
2022-08-28T10:23:47.477Z,8.3
2022-08-28T10:28:47.328Z,8.4
2022-08-28T10:33:47.430Z,7.8
2022-08-28T10:38:52.938Z,7.8
2022-08-28T10:43:48.060Z,8.8
2022-08-28T10:48:47.371Z,7.8
2022-08-28T10:53:47.455Z,8.2
2022-08-28T10:58:47.884Z,7.9
2022-08-28T11:03:47.584Z,8.8
2022-08-28T11:08:47.324Z,8.8
2022-08-28T11:13:47.967Z,7.4
2022-08-28T11:18:47.429Z,8.1
2022-08-28T11:23:47.514Z,8.2
2022-08-28T11:28:47.612Z,7.1
2022-08-28T11:33:47.401Z,7.2
2022-08-28T11:38:47.383Z,8.5
2022-08-28T11:43:47.510Z,8.3
2022-08-28T11:48:47.303Z,10.9
2022-08-28T11:53:47.364Z,12.2
2022-08-28T11:58:47.540Z,13.1
2022-08-28T12:03:47.511Z,11.8
2022-08-28T12:08:47.284Z,13.1
2022-08-28T12:13:47.766Z,11.5
2022-08-28T12:18:47.339Z,12.0
2022-08-28T12:23:47.523Z,17.6
2022-08-28T12:28:47.241Z,13.9
2022-08-28T12:33:47.376Z,12.3
2022-08-28T12:38:47.367Z,11.2
2022-08-28T12:43:47.503Z,11.6
2022-08-28T12:48:47.347Z,10.6
2022-08-28T12:53:47.317Z,9.6
2022-08-28T12:58:47.496Z,8.8
2022-08-28T13:03:47.221Z,11.5
2022-08-28T13:08:47.216Z,12.3
2022-08-28T13:13:47.444Z,10.7
2022-08-28T13:18:47.298Z,10.2
2022-08-28T13:23:47.292Z,10.8
2022-08-28T13:28:47.407Z,10.5
2022-08-28T13:33:47.213Z,11.2
2022-08-28T13:38:47.171Z,15.5
2022-08-28T13:43:47.347Z,11.5
2022-08-28T13:48:47.211Z,10.4
2022-08-28T13:53:47.244Z,10.8
2022-08-28T13:58:52.836Z,11.3
2022-08-28T14:03:47.263Z,8.8
2022-08-28T14:08:47.175Z,6.0
2022-08-28T14:13:55.515Z,3.9
2022-08-28T14:18:47.232Z,2.8
2022-08-28T14:23:47.220Z,2.3
2022-08-28T14:28:47.545Z,3.1
2022-08-28T14:33:47.117Z,3.4
2022-08-28T14:38:47.174Z,2.5
2022-08-28T14:43:47.310Z,2.7
2022-08-28T14:48:47.130Z,3.0
2022-08-28T14:53:47.130Z,2.3
2022-08-28T14:58:47.375Z,2.1
2022-08-28T15:03:47.239Z,2.1
2022-08-28T15:08:47.133Z,1.5
2022-08-28T15:13:47.226Z,1.3
2022-08-28T15:18:47.153Z,1.1
2022-08-28T15:23:48.137Z,1.0
2022-08-28T15:28:48.676Z,1.6
2022-08-28T15:33:47.042Z,1.5
2022-08-28T15:38:47.079Z,2.2
2022-08-28T15:43:47.691Z,2.3
2022-08-28T15:48:54.378Z,2.0
2022-08-28T15:53:48.045Z,2.4
2022-08-28T15:58:47.055Z,2.3
2022-08-28T16:03:47.086Z,2.1
2022-08-28T16:08:47.017Z,2.4
2022-08-28T16:13:47.151Z,2.5
2022-08-28T16:18:47.002Z,2.1
2022-08-28T16:23:47.126Z,4.0
2022-08-28T16:28:47.111Z,5.2
2022-08-28T16:33:48.274Z,4.5
2022-08-28T16:38:46.915Z,4.9
2022-08-28T16:43:47.055Z,4.3
2022-08-28T16:48:47.494Z,4.8
2022-08-28T16:53:46.984Z,5.6
2022-08-28T16:58:47.070Z,5.8
2022-08-28T17:03:46.922Z,5.2
2022-08-28T17:08:46.946Z,5.2
2022-08-28T17:13:47.000Z,10.6
2022-08-28T17:18:51.974Z,7.2
2022-08-28T17:23:46.919Z,6.0
2022-08-28T17:28:46.751Z,6.4
2022-08-28T17:33:46.883Z,4.8
2022-08-28T17:38:46.875Z,4.4
2022-08-28T17:43:47.005Z,6.9
2022-08-28T17:48:53.566Z,5.3
2022-08-28T17:53:46.858Z,5.3
2022-08-28T17:58:47.023Z,5.6
2022-08-28T18:03:52.944Z,6.7
2022-08-28T18:08:46.742Z,7.4
2022-08-28T18:13:47.106Z,7.2
2022-08-28T18:18:46.804Z,7.0
2022-08-28T18:23:46.786Z,6.8
2022-08-28T18:28:46.842Z,6.8
2022-08-28T18:33:46.728Z,6.8
2022-08-28T18:38:47.011Z,6.3
2022-08-28T18:43:46.678Z,6.9
2022-08-28T18:48:46.761Z,7.1
2022-08-28T18:53:46.831Z,6.6
2022-08-28T18:58:46.746Z,6.7
2022-08-28T19:03:46.684Z,6.8
2022-08-28T19:08:46.971Z,7.0
2022-08-28T19:13:46.793Z,7.1
2022-08-28T19:18:47.988Z,6.6
2022-08-28T19:23:55.645Z,7.2
2022-08-28T19:28:46.834Z,8.2
2022-08-28T19:33:46.713Z,8.4
2022-08-28T19:38:46.639Z,10.2
2022-08-28T19:43:46.724Z,10.4
2022-08-28T19:48:46.676Z,12.4
2022-08-28T19:53:46.577Z,13.2
2022-08-28T19:58:46.698Z,11.7
2022-08-28T20:03:46.739Z,11.0
2022-08-28T20:08:46.768Z,9.8
2022-08-28T20:13:46.655Z,11.8
2022-08-28T20:18:46.618Z,13.1
2022-08-28T20:23:46.791Z,12.4
2022-08-28T20:28:46.618Z,13.0
2022-08-28T20:33:46.673Z,12.7
2022-08-28T20:38:46.512Z,13.4
2022-08-28T20:43:46.672Z,11.3
2022-08-28T20:48:46.598Z,11.7
2022-08-28T20:53:46.537Z,12.3
2022-08-28T20:58:46.540Z,13.0
2022-08-28T21:03:46.649Z,14.4
2022-08-28T21:08:46.653Z,14.5
2022-08-28T21:13:46.474Z,13.1
2022-08-28T21:19:13.993Z,10.9
2022-08-28T21:23:46.683Z,11.9
2022-08-28T21:28:46.571Z,13.5
2022-08-28T21:33:46.431Z,11.9
2022-08-28T21:38:46.478Z,10.6
2022-08-28T21:43:46.565Z,10.8
2022-08-28T21:48:46.582Z,10.6
2022-08-28T21:53:46.331Z,10.7
2022-08-28T21:58:46.497Z,8.9
2022-08-28T22:03:46.407Z,8.7
2022-08-28T22:08:46.617Z,7.4
2022-08-28T22:13:46.339Z,7.2
2022-08-28T22:18:46.408Z,6.9
2022-08-28T22:23:46.443Z,7.3
2022-08-28T22:28:46.687Z,6.5
2022-08-28T22:33:46.390Z,6.3
2022-08-28T22:38:53.046Z,6.7
2022-08-28T22:43:46.559Z,5.8
2022-08-28T22:48:46.295Z,6.3
2022-08-28T22:53:46.412Z,6.8
2022-08-28T22:58:46.606Z,7.2
2022-08-28T23:03:46.433Z,6.9
2022-08-28T23:08:46.448Z,6.9
2022-08-28T23:13:46.272Z,7.8
2022-08-28T23:19:04.244Z,8.4
2022-08-28T23:23:46.356Z,9.1
2022-08-28T23:28:46.534Z,8.4
2022-08-28T23:33:46.296Z,7.4
2022-08-28T23:38:46.292Z,7.5
2022-08-28T23:43:46.446Z,7.7
2022-08-28T23:48:46.228Z,7.4
2022-08-28T23:53:46.329Z,7.6
2022-08-28T23:58:46.470Z,8.5
